Apison, Tennessee
Current Conditions -  °F | °C
As of 2:53 AM on Wednesday 26 Nov 2014 (Local Time) from KCHA Reporting Station
Few Clouds Few Clouds  
Wind Chill: 42°   Ceiling: Unl
Heat Index: 46°   Visibility: 10mi
Dew Point: 31°   Wind: 7mph
Humidity: 56%   Direction: 340°NNW
Pressure: 30.04"   Gusts: NA
Location:  35.02°N, 85.02°W
Report Text: KCHA 260753Z AUTO 34006KT 10SM FEW120 08/M01 A3004 RMK AO2 SLP171 T00781006
Loading
Personal Weather Stations






























Interactive Weather Map New forecast layout! Learn more

10-Day Weather Forecast

Advertisements
Track Severe Weather on mobile